sensor_id;sensor_type;location;lat;lon;timestamp;P1;durP1;ratioP1;P2;durP2;ratioP2
32216;SDS011;18709;51.140;4.088;2022-12-18T00:00:46;77.97;;;26.70;;
32216;SDS011;18709;51.140;4.088;2022-12-18T00:03:15;84.18;;;27.55;;
32216;SDS011;18709;51.140;4.088;2022-12-18T00:05:51;84.10;;;28.00;;
32216;SDS011;18709;51.140;4.088;2022-12-18T00:08:17;77.97;;;26.52;;
32216;SDS011;18709;51.140;4.088;2022-12-18T00:10:44;82.53;;;27.38;;
32216;SDS011;18709;51.140;4.088;2022-12-18T00:13:10;86.45;;;27.67;;
32216;SDS011;18709;51.140;4.088;2022-12-18T00:15:37;85.35;;;28.20;;
32216;SDS011;18709;51.140;4.088;2022-12-18T00:18:03;80.15;;;26.73;;
32216;SDS011;18709;51.140;4.088;2022-12-18T00:20:30;85.25;;;27.77;;
32216;SDS011;18709;51.140;4.088;2022-12-18T00:22:55;77.13;;;28.23;;
32216;SDS011;18709;51.140;4.088;2022-12-18T00:25:21;81.20;;;26.80;;
32216;SDS011;18709;51.140;4.088;2022-12-18T00:27:47;86.78;;;27.10;;
32216;SDS011;18709;51.140;4.088;2022-12-18T00:30:13;82.78;;;27.40;;
32216;SDS011;18709;51.140;4.088;2022-12-18T00:32:39;82.25;;;26.40;;
32216;SDS011;18709;51.140;4.088;2022-12-18T00:35:05;100.35;;;28.55;;
32216;SDS011;18709;51.140;4.088;2022-12-18T00:37:32;89.43;;;29.33;;
32216;SDS011;18709;51.140;4.088;2022-12-18T00:39:58;82.38;;;28.50;;
32216;SDS011;18709;51.140;4.088;2022-12-18T00:42:24;86.30;;;29.50;;
32216;SDS011;18709;51.140;4.088;2022-12-18T00:45:08;87.85;;;27.35;;
32216;SDS011;18709;51.140;4.088;2022-12-18T00:47:34;83.68;;;28.58;;
32216;SDS011;18709;51.140;4.088;2022-12-18T00:49:59;85.80;;;28.00;;
32216;SDS011;18709;51.140;4.088;2022-12-18T00:52:25;88.78;;;29.65;;
32216;SDS011;18709;51.140;4.088;2022-12-18T00:54:51;79.70;;;27.13;;
32216;SDS011;18709;51.140;4.088;2022-12-18T00:57:16;84.53;;;28.33;;
32216;SDS011;18709;51.140;4.088;2022-12-18T00:59:42;70.50;;;27.67;;
32216;SDS011;18709;51.140;4.088;2022-12-18T01:02:07;69.43;;;26.40;;
32216;SDS011;18709;51.140;4.088;2022-12-18T01:04:34;86.13;;;28.35;;
32216;SDS011;18709;51.140;4.088;2022-12-18T01:07:00;77.78;;;27.75;;
32216;SDS011;18709;51.140;4.088;2022-12-18T01:09:25;77.90;;;26.58;;
32216;SDS011;18709;51.140;4.088;2022-12-18T01:11:51;79.30;;;26.85;;
32216;SDS011;18709;51.140;4.088;2022-12-18T01:14:16;82.80;;;27.88;;
32216;SDS011;18709;51.140;4.088;2022-12-18T01:16:42;77.78;;;27.60;;
32216;SDS011;18709;51.140;4.088;2022-12-18T01:19:08;79.40;;;28.35;;
32216;SDS011;18709;51.140;4.088;2022-12-18T01:21:34;77.72;;;26.95;;
32216;SDS011;18709;51.140;4.088;2022-12-18T01:23:59;85.40;;;27.88;;
32216;SDS011;18709;51.140;4.088;2022-12-18T01:26:25;75.00;;;27.48;;
32216;SDS011;18709;51.140;4.088;2022-12-18T01:28:55;77.40;;;26.92;;
32216;SDS011;18709;51.140;4.088;2022-12-18T01:31:23;71.38;;;25.05;;
32216;SDS011;18709;51.140;4.088;2022-12-18T01:33:51;69.97;;;26.17;;
32216;SDS011;18709;51.140;4.088;2022-12-18T01:36:21;80.50;;;26.80;;
32216;SDS011;18709;51.140;4.088;2022-12-18T01:38:49;79.93;;;29.55;;
32216;SDS011;18709;51.140;4.088;2022-12-18T01:41:16;74.25;;;26.77;;
32216;SDS011;18709;51.140;4.088;2022-12-18T01:46:13;84.78;;;28.75;;
32216;SDS011;18709;51.140;4.088;2022-12-18T01:48:39;81.20;;;27.65;;
32216;SDS011;18709;51.140;4.088;2022-12-18T01:51:06;88.60;;;28.75;;
32216;SDS011;18709;51.140;4.088;2022-12-18T01:53:34;79.75;;;27.55;;
32216;SDS011;18709;51.140;4.088;2022-12-18T01:56:01;78.78;;;28.70;;
32216;SDS011;18709;51.140;4.088;2022-12-18T02:01:16;70.00;;;26.52;;
32216;SDS011;18709;51.140;4.088;2022-12-18T02:03:43;85.57;;;28.83;;
32216;SDS011;18709;51.140;4.088;2022-12-18T02:06:12;76.28;;;26.58;;
32216;SDS011;18709;51.140;4.088;2022-12-18T02:14:32;85.43;;;28.52;;
32216;SDS011;18709;51.140;4.088;2022-12-18T02:22:29;80.23;;;27.40;;
32216;SDS011;18709;51.140;4.088;2022-12-18T02:28:13;87.57;;;27.95;;
32216;SDS011;18709;51.140;4.088;2022-12-18T02:30:40;85.88;;;29.33;;
32216;SDS011;18709;51.140;4.088;2022-12-18T02:33:08;77.25;;;27.45;;
32216;SDS011;18709;51.140;4.088;2022-12-18T02:35:36;83.18;;;28.35;;
32216;SDS011;18709;51.140;4.088;2022-12-18T02:38:03;79.45;;;27.52;;
32216;SDS011;18709;51.140;4.088;2022-12-18T02:40:29;78.18;;;27.05;;
32216;SDS011;18709;51.140;4.088;2022-12-18T02:43:01;75.55;;;26.08;;
32216;SDS011;18709;51.140;4.088;2022-12-18T02:45:31;73.68;;;26.70;;
32216;SDS011;18709;51.140;4.088;2022-12-18T02:47:57;80.53;;;27.27;;
32216;SDS011;18709;51.140;4.088;2022-12-18T02:50:26;78.18;;;27.58;;
32216;SDS011;18709;51.140;4.088;2022-12-18T03:01:40;81.43;;;28.20;;
32216;SDS011;18709;51.140;4.088;2022-12-18T03:06:48;85.45;;;28.33;;
32216;SDS011;18709;51.140;4.088;2022-12-18T03:09:21;85.13;;;29.50;;
32216;SDS011;18709;51.140;4.088;2022-12-18T03:12:06;76.40;;;28.13;;
32216;SDS011;18709;51.140;4.088;2022-12-18T03:14:57;85.55;;;29.00;;
32216;SDS011;18709;51.140;4.088;2022-12-18T03:17:31;87.40;;;27.98;;
32216;SDS011;18709;51.140;4.088;2022-12-18T03:19:59;89.63;;;30.35;;
32216;SDS011;18709;51.140;4.088;2022-12-18T03:22:30;83.47;;;29.20;;
32216;SDS011;18709;51.140;4.088;2022-12-18T03:24:59;81.35;;;28.58;;
32216;SDS011;18709;51.140;4.088;2022-12-18T03:27:27;90.85;;;27.70;;
32216;SDS011;18709;51.140;4.088;2022-12-18T03:30:04;85.45;;;27.27;;
32216;SDS011;18709;51.140;4.088;2022-12-18T03:32:36;76.22;;;27.15;;
32216;SDS011;18709;51.140;4.088;2022-12-18T03:35:06;77.55;;;26.85;;
32216;SDS011;18709;51.140;4.088;2022-12-18T03:37:35;77.00;;;27.42;;
32216;SDS011;18709;51.140;4.088;2022-12-18T03:40:01;74.28;;;26.60;;
32216;SDS011;18709;51.140;4.088;2022-12-18T03:45:26;72.30;;;26.20;;
32216;SDS011;18709;51.140;4.088;2022-12-18T03:48:18;76.55;;;25.80;;
32216;SDS011;18709;51.140;4.088;2022-12-18T03:50:59;73.88;;;27.08;;
32216;SDS011;18709;51.140;4.088;2022-12-18T03:53:47;74.93;;;25.58;;
32216;SDS011;18709;51.140;4.088;2022-12-18T03:56:36;80.72;;;26.92;;
32216;SDS011;18709;51.140;4.088;2022-12-18T03:59:12;70.72;;;24.23;;
32216;SDS011;18709;51.140;4.088;2022-12-18T04:01:41;78.78;;;25.83;;
32216;SDS011;18709;51.140;4.088;2022-12-18T04:04:11;73.32;;;26.88;;
32216;SDS011;18709;51.140;4.088;2022-12-18T04:06:39;70.68;;;24.55;;
32216;SDS011;18709;51.140;4.088;2022-12-18T04:09:07;79.32;;;26.05;;
32216;SDS011;18709;51.140;4.088;2022-12-18T04:11:33;66.88;;;23.70;;
32216;SDS011;18709;51.140;4.088;2022-12-18T04:13:58;74.50;;;25.65;;
32216;SDS011;18709;51.140;4.088;2022-12-18T04:16:27;64.45;;;23.40;;
32216;SDS011;18709;51.140;4.088;2022-12-18T04:18:54;65.35;;;23.02;;
32216;SDS011;18709;51.140;4.088;2022-12-18T04:21:19;64.20;;;24.27;;
32216;SDS011;18709;51.140;4.088;2022-12-18T04:23:45;67.15;;;23.30;;
32216;SDS011;18709;51.140;4.088;2022-12-18T04:26:11;63.97;;;22.63;;
32216;SDS011;18709;51.140;4.088;2022-12-18T04:28:37;66.90;;;23.65;;
32216;SDS011;18709;51.140;4.088;2022-12-18T04:31:02;59.80;;;22.10;;
32216;SDS011;18709;51.140;4.088;2022-12-18T04:33:28;68.13;;;23.15;;
32216;SDS011;18709;51.140;4.088;2022-12-18T04:35:54;64.38;;;23.27;;
32216;SDS011;18709;51.140;4.088;2022-12-18T04:38:19;61.85;;;21.85;;
32216;SDS011;18709;51.140;4.088;2022-12-18T04:40:45;73.82;;;23.40;;
32216;SDS011;18709;51.140;4.088;2022-12-18T04:43:11;74.57;;;24.27;;
32216;SDS011;18709;51.140;4.088;2022-12-18T04:45:36;61.22;;;23.80;;
32216;SDS011;18709;51.140;4.088;2022-12-18T04:48:02;71.40;;;23.45;;
32216;SDS011;18709;51.140;4.088;2022-12-18T04:50:29;60.58;;;22.63;;
32216;SDS011;18709;51.140;4.088;2022-12-18T04:52:55;64.10;;;23.63;;
32216;SDS011;18709;51.140;4.088;2022-12-18T04:55:21;67.47;;;22.95;;
32216;SDS011;18709;51.140;4.088;2022-12-18T04:57:49;68.65;;;23.20;;
32216;SDS011;18709;51.140;4.088;2022-12-18T05:00:15;66.25;;;22.08;;
32216;SDS011;18709;51.140;4.088;2022-12-18T05:02:41;60.00;;;22.02;;
32216;SDS011;18709;51.140;4.088;2022-12-18T05:05:07;65.75;;;21.80;;
32216;SDS011;18709;51.140;4.088;2022-12-18T05:07:33;67.70;;;24.98;;
32216;SDS011;18709;51.140;4.088;2022-12-18T05:09:58;61.00;;;22.95;;
32216;SDS011;18709;51.140;4.088;2022-12-18T05:12:24;60.70;;;21.98;;
32216;SDS011;18709;51.140;4.088;2022-12-18T05:14:50;55.90;;;21.30;;
32216;SDS011;18709;51.140;4.088;2022-12-18T05:17:15;70.20;;;22.95;;
32216;SDS011;18709;51.140;4.088;2022-12-18T05:19:41;66.43;;;22.60;;
32216;SDS011;18709;51.140;4.088;2022-12-18T05:22:06;61.78;;;23.00;;
32216;SDS011;18709;51.140;4.088;2022-12-18T05:24:33;67.95;;;22.33;;
32216;SDS011;18709;51.140;4.088;2022-12-18T05:26:58;62.08;;;22.45;;
32216;SDS011;18709;51.140;4.088;2022-12-18T05:29:24;61.38;;;21.00;;
32216;SDS011;18709;51.140;4.088;2022-12-18T05:31:50;52.83;;;19.45;;
32216;SDS011;18709;51.140;4.088;2022-12-18T05:34:15;60.38;;;21.15;;
32216;SDS011;18709;51.140;4.088;2022-12-18T05:36:41;62.67;;;22.20;;
32216;SDS011;18709;51.140;4.088;2022-12-18T05:39:07;56.10;;;20.73;;
32216;SDS011;18709;51.140;4.088;2022-12-18T05:41:33;53.42;;;20.35;;
32216;SDS011;18709;51.140;4.088;2022-12-18T05:43:58;53.45;;;18.38;;
32216;SDS011;18709;51.140;4.088;2022-12-18T05:46:24;54.97;;;21.02;;
32216;SDS011;18709;51.140;4.088;2022-12-18T05:48:51;56.70;;;20.35;;
32216;SDS011;18709;51.140;4.088;2022-12-18T05:51:17;54.83;;;20.15;;
32216;SDS011;18709;51.140;4.088;2022-12-18T05:53:44;52.10;;;18.33;;
32216;SDS011;18709;51.140;4.088;2022-12-18T05:56:12;52.97;;;19.27;;
32216;SDS011;18709;51.140;4.088;2022-12-18T05:58:39;57.80;;;21.25;;
32216;SDS011;18709;51.140;4.088;2022-12-18T06:01:09;55.28;;;18.27;;
32216;SDS011;18709;51.140;4.088;2022-12-18T06:03:43;55.17;;;18.92;;
32216;SDS011;18709;51.140;4.088;2022-12-18T06:06:22;52.97;;;19.13;;
32216;SDS011;18709;51.140;4.088;2022-12-18T06:08:49;50.35;;;19.48;;
32216;SDS011;18709;51.140;4.088;2022-12-18T06:11:16;55.25;;;19.90;;
32216;SDS011;18709;51.140;4.088;2022-12-18T06:13:49;56.10;;;19.58;;
32216;SDS011;18709;51.140;4.088;2022-12-18T06:16:16;46.65;;;18.77;;
32216;SDS011;18709;51.140;4.088;2022-12-18T06:18:42;55.78;;;20.08;;
32216;SDS011;18709;51.140;4.088;2022-12-18T06:21:07;59.05;;;21.63;;
32216;SDS011;18709;51.140;4.088;2022-12-18T06:23:33;57.38;;;19.85;;
32216;SDS011;18709;51.140;4.088;2022-12-18T06:26:02;63.10;;;20.83;;
32216;SDS011;18709;51.140;4.088;2022-12-18T06:28:33;54.83;;;20.90;;
32216;SDS011;18709;51.140;4.088;2022-12-18T06:30:58;52.50;;;20.02;;
32216;SDS011;18709;51.140;4.088;2022-12-18T06:33:27;60.05;;;21.23;;
32216;SDS011;18709;51.140;4.088;2022-12-18T06:35:53;55.33;;;20.35;;
32216;SDS011;18709;51.140;4.088;2022-12-18T06:38:19;61.30;;;20.42;;
32216;SDS011;18709;51.140;4.088;2022-12-18T06:40:45;53.50;;;20.60;;
32216;SDS011;18709;51.140;4.088;2022-12-18T06:43:11;48.15;;;19.77;;
32216;SDS011;18709;51.140;4.088;2022-12-18T06:45:36;60.08;;;19.90;;
32216;SDS011;18709;51.140;4.088;2022-12-18T06:48:02;57.42;;;20.58;;
32216;SDS011;18709;51.140;4.088;2022-12-18T06:50:27;53.05;;;20.02;;
32216;SDS011;18709;51.140;4.088;2022-12-18T06:52:53;56.20;;;19.92;;
32216;SDS011;18709;51.140;4.088;2022-12-18T06:55:19;51.85;;;19.42;;
32216;SDS011;18709;51.140;4.088;2022-12-18T06:57:44;55.83;;;19.75;;
32216;SDS011;18709;51.140;4.088;2022-12-18T07:00:10;55.00;;;19.20;;
32216;SDS011;18709;51.140;4.088;2022-12-18T07:02:36;50.88;;;19.02;;
32216;SDS011;18709;51.140;4.088;2022-12-18T07:05:02;62.80;;;19.75;;
32216;SDS011;18709;51.140;4.088;2022-12-18T07:07:28;49.30;;;18.80;;
32216;SDS011;18709;51.140;4.088;2022-12-18T07:09:53;47.30;;;18.50;;
32216;SDS011;18709;51.140;4.088;2022-12-18T07:12:19;50.60;;;19.95;;
32216;SDS011;18709;51.140;4.088;2022-12-18T07:14:44;49.72;;;18.65;;
32216;SDS011;18709;51.140;4.088;2022-12-18T07:17:10;46.53;;;18.33;;
32216;SDS011;18709;51.140;4.088;2022-12-18T07:19:36;43.08;;;17.60;;
32216;SDS011;18709;51.140;4.088;2022-12-18T07:22:01;44.95;;;18.30;;
32216;SDS011;18709;51.140;4.088;2022-12-18T07:24:27;50.67;;;18.27;;
32216;SDS011;18709;51.140;4.088;2022-12-18T07:26:53;44.75;;;17.00;;
32216;SDS011;18709;51.140;4.088;2022-12-18T07:29:19;51.67;;;18.35;;
32216;SDS011;18709;51.140;4.088;2022-12-18T07:31:44;46.92;;;17.30;;
32216;SDS011;18709;51.140;4.088;2022-12-18T07:34:13;50.88;;;17.25;;
32216;SDS011;18709;51.140;4.088;2022-12-18T07:36:40;49.72;;;18.65;;
32216;SDS011;18709;51.140;4.088;2022-12-18T07:39:05;48.53;;;18.15;;
32216;SDS011;18709;51.140;4.088;2022-12-18T07:41:32;46.08;;;17.70;;
32216;SDS011;18709;51.140;4.088;2022-12-18T07:43:57;45.17;;;17.13;;
32216;SDS011;18709;51.140;4.088;2022-12-18T07:46:23;48.72;;;16.48;;
32216;SDS011;18709;51.140;4.088;2022-12-18T07:48:49;44.50;;;17.58;;
32216;SDS011;18709;51.140;4.088;2022-12-18T07:51:14;47.08;;;16.95;;
32216;SDS011;18709;51.140;4.088;2022-12-18T07:53:40;45.15;;;16.83;;
32216;SDS011;18709;51.140;4.088;2022-12-18T07:56:07;48.25;;;17.98;;
32216;SDS011;18709;51.140;4.088;2022-12-18T07:58:35;49.63;;;16.77;;
32216;SDS011;18709;51.140;4.088;2022-12-18T08:01:08;49.53;;;16.55;;
32216;SDS011;18709;51.140;4.088;2022-12-18T08:03:35;53.85;;;18.08;;
32216;SDS011;18709;51.140;4.088;2022-12-18T08:06:05;51.50;;;18.10;;
32216;SDS011;18709;51.140;4.088;2022-12-18T08:08:32;54.03;;;16.20;;
32216;SDS011;18709;51.140;4.088;2022-12-18T08:10:59;49.58;;;17.75;;
32216;SDS011;18709;51.140;4.088;2022-12-18T08:13:25;43.58;;;16.98;;
32216;SDS011;18709;51.140;4.088;2022-12-18T08:18:28;42.83;;;14.95;;
32216;SDS011;18709;51.140;4.088;2022-12-18T08:20:54;38.83;;;14.93;;
32216;SDS011;18709;51.140;4.088;2022-12-18T08:23:20;42.97;;;15.55;;
32216;SDS011;18709;51.140;4.088;2022-12-18T08:25:46;42.30;;;16.17;;
32216;SDS011;18709;51.140;4.088;2022-12-18T08:28:12;41.83;;;14.75;;
32216;SDS011;18709;51.140;4.088;2022-12-18T08:30:38;43.58;;;15.35;;
32216;SDS011;18709;51.140;4.088;2022-12-18T08:33:04;45.53;;;15.90;;
32216;SDS011;18709;51.140;4.088;2022-12-18T08:35:30;39.03;;;14.60;;
32216;SDS011;18709;51.140;4.088;2022-12-18T08:37:59;35.92;;;13.27;;
32216;SDS011;18709;51.140;4.088;2022-12-18T08:40:24;41.92;;;15.55;;
32216;SDS011;18709;51.140;4.088;2022-12-18T08:42:50;36.83;;;14.80;;
32216;SDS011;18709;51.140;4.088;2022-12-18T08:45:54;45.78;;;15.15;;
32216;SDS011;18709;51.140;4.088;2022-12-18T08:48:20;42.45;;;14.88;;
32216;SDS011;18709;51.140;4.088;2022-12-18T08:50:56;45.75;;;15.27;;
32216;SDS011;18709;51.140;4.088;2022-12-18T08:53:23;36.17;;;15.38;;
32216;SDS011;18709;51.140;4.088;2022-12-18T08:55:50;41.38;;;16.17;;
32216;SDS011;18709;51.140;4.088;2022-12-18T08:58:15;37.75;;;14.55;;
32216;SDS011;18709;51.140;4.088;2022-12-18T09:00:41;36.13;;;14.80;;
32216;SDS011;18709;51.140;4.088;2022-12-18T09:03:13;44.53;;;16.73;;
32216;SDS011;18709;51.140;4.088;2022-12-18T09:05:40;42.88;;;16.15;;
32216;SDS011;18709;51.140;4.088;2022-12-18T09:08:06;42.50;;;16.67;;
32216;SDS011;18709;51.140;4.088;2022-12-18T09:10:32;45.88;;;16.45;;
32216;SDS011;18709;51.140;4.088;2022-12-18T09:12:58;40.92;;;15.90;;
32216;SDS011;18709;51.140;4.088;2022-12-18T09:15:23;41.70;;;14.77;;
32216;SDS011;18709;51.140;4.088;2022-12-18T09:17:49;42.05;;;17.15;;
32216;SDS011;18709;51.140;4.088;2022-12-18T09:20:15;40.78;;;16.20;;
32216;SDS011;18709;51.140;4.088;2022-12-18T09:22:41;43.90;;;16.80;;
32216;SDS011;18709;51.140;4.088;2022-12-18T09:25:07;39.17;;;15.45;;
32216;SDS011;18709;51.140;4.088;2022-12-18T09:27:33;39.13;;;14.45;;
32216;SDS011;18709;51.140;4.088;2022-12-18T09:29:59;39.08;;;15.20;;
32216;SDS011;18709;51.140;4.088;2022-12-18T09:32:25;38.75;;;13.88;;
32216;SDS011;18709;51.140;4.088;2022-12-18T09:34:51;42.47;;;15.55;;
32216;SDS011;18709;51.140;4.088;2022-12-18T09:37:16;36.80;;;14.15;;
32216;SDS011;18709;51.140;4.088;2022-12-18T09:39:42;39.13;;;16.17;;
32216;SDS011;18709;51.140;4.088;2022-12-18T09:42:18;40.88;;;15.77;;
32216;SDS011;18709;51.140;4.088;2022-12-18T09:44:53;39.00;;;15.25;;
32216;SDS011;18709;51.140;4.088;2022-12-18T09:47:27;39.83;;;16.20;;
32216;SDS011;18709;51.140;4.088;2022-12-18T09:50:05;38.88;;;14.82;;
32216;SDS011;18709;51.140;4.088;2022-12-18T09:52:45;39.92;;;16.25;;
32216;SDS011;18709;51.140;4.088;2022-12-18T09:55:19;38.72;;;16.55;;
32216;SDS011;18709;51.140;4.088;2022-12-18T10:00:56;39.08;;;15.48;;
32216;SDS011;18709;51.140;4.088;2022-12-18T10:03:22;37.42;;;15.07;;
32216;SDS011;18709;51.140;4.088;2022-12-18T10:08:56;40.92;;;16.35;;
32216;SDS011;18709;51.140;4.088;2022-12-18T10:16:43;34.10;;;15.30;;
32216;SDS011;18709;51.140;4.088;2022-12-18T10:19:40;30.15;;;13.70;;
32216;SDS011;18709;51.140;4.088;2022-12-18T10:27:30;36.05;;;14.73;;
32216;SDS011;18709;51.140;4.088;2022-12-18T10:29:56;32.55;;;14.48;;
32216;SDS011;18709;51.140;4.088;2022-12-18T10:32:27;39.05;;;15.57;;
32216;SDS011;18709;51.140;4.088;2022-12-18T10:34:55;37.00;;;15.65;;
32216;SDS011;18709;51.140;4.088;2022-12-18T10:37:23;39.42;;;14.93;;
32216;SDS011;18709;51.140;4.088;2022-12-18T10:40:07;36.10;;;16.60;;
32216;SDS011;18709;51.140;4.088;2022-12-18T10:42:34;32.20;;;14.63;;
32216;SDS011;18709;51.140;4.088;2022-12-18T10:45:01;36.15;;;15.80;;
32216;SDS011;18709;51.140;4.088;2022-12-18T10:47:30;38.63;;;16.50;;
32216;SDS011;18709;51.140;4.088;2022-12-18T10:49:58;35.15;;;14.90;;
32216;SDS011;18709;51.140;4.088;2022-12-18T10:52:25;35.05;;;15.32;;
32216;SDS011;18709;51.140;4.088;2022-12-18T10:54:53;39.05;;;15.63;;
32216;SDS011;18709;51.140;4.088;2022-12-18T10:59:55;37.75;;;14.23;;
32216;SDS011;18709;51.140;4.088;2022-12-18T11:02:43;33.40;;;14.45;;
32216;SDS011;18709;51.140;4.088;2022-12-18T11:05:25;36.45;;;14.13;;
32216;SDS011;18709;51.140;4.088;2022-12-18T11:07:55;36.10;;;14.52;;
32216;SDS011;18709;51.140;4.088;2022-12-18T11:10:24;32.47;;;14.48;;
32216;SDS011;18709;51.140;4.088;2022-12-18T11:12:55;32.60;;;15.18;;
32216;SDS011;18709;51.140;4.088;2022-12-18T11:15:33;34.50;;;14.40;;
32216;SDS011;18709;51.140;4.088;2022-12-18T11:17:59;34.55;;;14.38;;
32216;SDS011;18709;51.140;4.088;2022-12-18T11:23:20;35.20;;;15.85;;
32216;SDS011;18709;51.140;4.088;2022-12-18T11:25:51;35.17;;;14.60;;
32216;SDS011;18709;51.140;4.088;2022-12-18T11:28:37;30.52;;;14.75;;
32216;SDS011;18709;51.140;4.088;2022-12-18T11:36:25;40.55;;;15.10;;
32216;SDS011;18709;51.140;4.088;2022-12-18T11:44:19;32.13;;;14.20;;
32216;SDS011;18709;51.140;4.088;2022-12-18T11:47:01;34.08;;;14.60;;
32216;SDS011;18709;51.140;4.088;2022-12-18T11:49:34;36.10;;;15.55;;
32216;SDS011;18709;51.140;4.088;2022-12-18T11:54:44;35.65;;;15.60;;
32216;SDS011;18709;51.140;4.088;2022-12-18T11:57:55;34.85;;;15.73;;
32216;SDS011;18709;51.140;4.088;2022-12-18T12:00:22;33.10;;;14.48;;
32216;SDS011;18709;51.140;4.088;2022-12-18T12:08:33;30.27;;;14.68;;
32216;SDS011;18709;51.140;4.088;2022-12-18T12:30:26;36.53;;;14.85;;
32216;SDS011;18709;51.140;4.088;2022-12-18T12:39:34;36.00;;;16.20;;
32216;SDS011;18709;51.140;4.088;2022-12-18T12:42:11;33.75;;;15.77;;
32216;SDS011;18709;51.140;4.088;2022-12-18T12:45:06;36.13;;;17.10;;
32216;SDS011;18709;51.140;4.088;2022-12-18T12:47:41;34.28;;;15.90;;
32216;SDS011;18709;51.140;4.088;2022-12-18T12:50:13;37.38;;;16.65;;
32216;SDS011;18709;51.140;4.088;2022-12-18T12:52:43;41.88;;;17.33;;
32216;SDS011;18709;51.140;4.088;2022-12-18T12:55:33;35.15;;;16.45;;
32216;SDS011;18709;51.140;4.088;2022-12-18T13:00:31;37.55;;;16.52;;
32216;SDS011;18709;51.140;4.088;2022-12-18T13:03:28;38.75;;;17.55;;
32216;SDS011;18709;51.140;4.088;2022-12-18T13:08:55;37.28;;;16.60;;
32216;SDS011;18709;51.140;4.088;2022-12-18T13:14:22;34.80;;;16.63;;
32216;SDS011;18709;51.140;4.088;2022-12-18T13:16:51;36.42;;;16.80;;
32216;SDS011;18709;51.140;4.088;2022-12-18T13:19:21;39.70;;;16.90;;
32216;SDS011;18709;51.140;4.088;2022-12-18T13:21:57;33.88;;;16.20;;
32216;SDS011;18709;51.140;4.088;2022-12-18T13:24:25;38.58;;;17.45;;
32216;SDS011;18709;51.140;4.088;2022-12-18T13:26:52;41.25;;;17.58;;
32216;SDS011;18709;51.140;4.088;2022-12-18T13:30:01;38.45;;;17.85;;
32216;SDS011;18709;51.140;4.088;2022-12-18T13:32:22;40.83;;;18.98;;
32216;SDS011;18709;51.140;4.088;2022-12-18T13:35:33;44.45;;;18.88;;
32216;SDS011;18709;51.140;4.088;2022-12-18T13:37:53;38.80;;;18.88;;
32216;SDS011;18709;51.140;4.088;2022-12-18T13:43:15;41.42;;;18.08;;
32216;SDS011;18709;51.140;4.088;2022-12-18T13:45:45;39.30;;;18.67;;
32216;SDS011;18709;51.140;4.088;2022-12-18T13:48:18;40.40;;;17.58;;
32216;SDS011;18709;51.140;4.088;2022-12-18T13:51:20;40.55;;;18.58;;
32216;SDS011;18709;51.140;4.088;2022-12-18T13:53:47;43.28;;;17.63;;
32216;SDS011;18709;51.140;4.088;2022-12-18T13:56:31;40.88;;;18.55;;
32216;SDS011;18709;51.140;4.088;2022-12-18T13:59:11;39.25;;;18.80;;
32216;SDS011;18709;51.140;4.088;2022-12-18T14:01:48;44.55;;;19.65;;
32216;SDS011;18709;51.140;4.088;2022-12-18T14:04:21;38.83;;;17.48;;
32216;SDS011;18709;51.140;4.088;2022-12-18T14:09:55;42.58;;;19.77;;
32216;SDS011;18709;51.140;4.088;2022-12-18T14:17:53;48.60;;;19.35;;
32216;SDS011;18709;51.140;4.088;2022-12-18T14:20:50;42.83;;;19.77;;
32216;SDS011;18709;51.140;4.088;2022-12-18T14:23:27;49.15;;;20.90;;
32216;SDS011;18709;51.140;4.088;2022-12-18T14:25:54;43.58;;;20.20;;
32216;SDS011;18709;51.140;4.088;2022-12-18T14:28:19;42.38;;;21.05;;
32216;SDS011;18709;51.140;4.088;2022-12-18T14:30:47;46.47;;;21.52;;
32216;SDS011;18709;51.140;4.088;2022-12-18T14:33:14;47.45;;;20.83;;
32216;SDS011;18709;51.140;4.088;2022-12-18T14:41:11;49.33;;;22.52;;
32216;SDS011;18709;51.140;4.088;2022-12-18T14:43:39;51.60;;;21.30;;
32216;SDS011;18709;51.140;4.088;2022-12-18T14:46:25;53.35;;;21.60;;
32216;SDS011;18709;51.140;4.088;2022-12-18T14:48:55;51.38;;;23.30;;
32216;SDS011;18709;51.140;4.088;2022-12-18T14:51:25;52.00;;;24.17;;
32216;SDS011;18709;51.140;4.088;2022-12-18T14:54:14;57.42;;;24.05;;
32216;SDS011;18709;51.140;4.088;2022-12-18T14:56:44;57.38;;;24.48;;
32216;SDS011;18709;51.140;4.088;2022-12-18T14:59:13;56.08;;;23.77;;
32216;SDS011;18709;51.140;4.088;2022-12-18T15:04:37;57.83;;;22.35;;
32216;SDS011;18709;51.140;4.088;2022-12-18T15:09:42;51.38;;;20.90;;
32216;SDS011;18709;51.140;4.088;2022-12-18T15:12:44;53.05;;;22.60;;
32216;SDS011;18709;51.140;4.088;2022-12-18T15:17:59;57.83;;;22.98;;
32216;SDS011;18709;51.140;4.088;2022-12-18T15:20:25;56.15;;;22.95;;
32216;SDS011;18709;51.140;4.088;2022-12-18T15:22:50;52.92;;;22.92;;
32216;SDS011;18709;51.140;4.088;2022-12-18T15:25:37;54.28;;;22.42;;
32216;SDS011;18709;51.140;4.088;2022-12-18T15:28:03;55.05;;;23.40;;
32216;SDS011;18709;51.140;4.088;2022-12-18T15:30:40;55.22;;;23.10;;
32216;SDS011;18709;51.140;4.088;2022-12-18T15:33:24;55.72;;;22.92;;
32216;SDS011;18709;51.140;4.088;2022-12-18T15:35:59;61.85;;;25.08;;
32216;SDS011;18709;51.140;4.088;2022-12-18T15:38:26;57.35;;;24.73;;
32216;SDS011;18709;51.140;4.088;2022-12-18T15:40:53;61.58;;;25.00;;
32216;SDS011;18709;51.140;4.088;2022-12-18T15:43:20;55.45;;;22.38;;
32216;SDS011;18709;51.140;4.088;2022-12-18T15:46:03;61.22;;;23.77;;
32216;SDS011;18709;51.140;4.088;2022-12-18T15:48:31;63.95;;;26.05;;
32216;SDS011;18709;51.140;4.088;2022-12-18T15:51:03;65.63;;;25.58;;
32216;SDS011;18709;51.140;4.088;2022-12-18T15:53:34;59.65;;;24.90;;
32216;SDS011;18709;51.140;4.088;2022-12-18T15:56:00;63.95;;;25.00;;
32216;SDS011;18709;51.140;4.088;2022-12-18T15:58:44;61.28;;;24.30;;
32216;SDS011;18709;51.140;4.088;2022-12-18T16:01:10;55.33;;;23.83;;
32216;SDS011;18709;51.140;4.088;2022-12-18T16:03:36;57.13;;;24.95;;
32216;SDS011;18709;51.140;4.088;2022-12-18T16:06:02;60.70;;;24.20;;
32216;SDS011;18709;51.140;4.088;2022-12-18T16:08:28;63.95;;;26.15;;
32216;SDS011;18709;51.140;4.088;2022-12-18T16:10:55;63.55;;;25.80;;
32216;SDS011;18709;51.140;4.088;2022-12-18T16:13:22;60.65;;;26.10;;
32216;SDS011;18709;51.140;4.088;2022-12-18T16:15:49;63.38;;;27.08;;
32216;SDS011;18709;51.140;4.088;2022-12-18T16:18:15;58.05;;;25.60;;
32216;SDS011;18709;51.140;4.088;2022-12-18T16:20:40;72.45;;;26.75;;
32216;SDS011;18709;51.140;4.088;2022-12-18T16:23:06;62.67;;;26.33;;
32216;SDS011;18709;51.140;4.088;2022-12-18T16:25:32;66.85;;;25.85;;
32216;SDS011;18709;51.140;4.088;2022-12-18T16:27:57;62.40;;;25.95;;
32216;SDS011;18709;51.140;4.088;2022-12-18T16:30:25;61.38;;;25.92;;
32216;SDS011;18709;51.140;4.088;2022-12-18T16:32:55;58.95;;;24.42;;
32216;SDS011;18709;51.140;4.088;2022-12-18T16:35:24;70.35;;;25.85;;
32216;SDS011;18709;51.140;4.088;2022-12-18T16:37:51;63.00;;;25.58;;
32216;SDS011;18709;51.140;4.088;2022-12-18T16:40:17;60.08;;;24.98;;
32216;SDS011;18709;51.140;4.088;2022-12-18T16:42:44;60.10;;;24.85;;
32216;SDS011;18709;51.140;4.088;2022-12-18T16:45:12;60.03;;;25.17;;
32216;SDS011;18709;51.140;4.088;2022-12-18T16:47:40;59.70;;;25.10;;
32216;SDS011;18709;51.140;4.088;2022-12-18T16:50:06;61.85;;;25.48;;
32216;SDS011;18709;51.140;4.088;2022-12-18T16:52:32;59.63;;;24.67;;